Terminal Aerodrome Forecast
Issued by NWS

Home | Current Version | Previous Version | Text Only | Print | Product List | Glossary On
Versions: 1 2 3 4 5 6 7 8 9 10 11 12 13 14 15 16 17 18 19 20 21 22
000
FTUS43 KJKL 180250 AAA
TAFSJS
TAF AMD
KSJS 180250Z 1803/1824 27009G17KT P6SM SCT050 OVC070
     FM180430 27009G17KT P6SM OVC025
     FM180700 28007KT P6SM VCSH OVC008
     FM181000 28007KT P6SM -SHRA OVC008
     FM181500 27006KT P6SM VCSH OVC015
     FM182000 26005KT P6SM BKN020=

USA.gov is the U.S. government's official web portal to all federal, state and local government web resources and services.